Zvartnots International Airport
UDYZ : now visible

Airfield :











YOU CAN JOIN US ON...

 
LOGIN :

Register | Disclaimer

   EN    FR    IT 

 









Legend :    VFR   Marginal VFR   IFR   Intensive IFR   Very Intensive IFR
Visi :
Ceiling :
>= 8 km
>= 3000ft
5 to 8 km
1000 to 3000 ft
1500m to 5 km
500 to 1000 ft
800 to 1500m
200 to 500 ft
< 800m
< 200 ft
Symbols :   Thunderstorms  Fog  Heavy snow  Heavy precipitations  Wind > 20 kt







- Airport Elevation : 2838 ft
- IATA code : EVN


UDYZ - Zvartnots International

CURRENT METAR :
  • 251530Z 03016G27KT 9999 FEW040CB 32/12 Q1012 R09/000070 TEMPO 03026G36KT

EXPIRED METARs :
  • 251500Z 03018G30KT 9999 FEW040CB 32/12 Q1012 R09/000070 TEMPO 03026G36KT
  • 251430Z 03017G29KT 9999 FEW040CB 33/12 Q1011 R09/000070 TEMPO 03026G36KT
  • 251400Z 03019G30KT 9999 FEW040CB 34/13 Q1011 R09/000070 TEMPO 03026G36KT TS
  • 251330Z 03017KT 9999 FEW040CB 35/12 Q1011 R09/000070 NOSIG

TAF TAF UDYZ
Valid from the 25 at 12:00 until the 26 at 12:00 UTC


251103Z 2512/2612 22006KT 9999 FEW040CB
TEMPO 2512/2522 03026G36KT -TSRA SCT040CB
UDDD FIR / Asia



MET'MAP, your aeronautical weather chart ! - Copyright ORBIFLY December 2007 - Disclaimer

ORBIFLY MET'MAP TEAM :

Programming & Development : Alexandra Zaïnal
Concept & Development : Baudouin d'Aumeries
Co-Development & Prog : Marc-Olivier Méhu
Technical & hardware support : Manuel Goepfert

Contact : metmap@orbifly.com




SOURCES & CREDITS :

   NOAA       Earth
Advisory